Time;durP1;ratioP1;P1;durP2;ratioP2;P2;SDS_P1;SDS_P2;PMS_P1;PMS_P2;Temp;Humidity;BMP_temperature;BMP_pressure;BME280_temperature;BME280_humidity;BME280_pressure;Samples;Min_cycle;Max_cycle;Signal;HPM_P1;HPM_P2
2024/02/20 00:00:14;;;;;;;18.05;13.55;;;;;;;7.24;69.26;93997.22;521141;28;905;-68
2024/02/20 00:00:30;;;;;;;19.92;14.15;;;;;;;7.23;69.30;93999.25;521216;28;825;-68
2024/02/20 00:00:45;;;;;;;20.53;14.40;;;;;;;7.24;69.24;94002.72;521208;28;785;-68
2024/02/20 00:01:00;;;;;;;19.10;14.20;;;;;;;7.24;69.17;93999.97;521247;28;908;-68
2024/02/20 00:01:16;;;;;;;18.30;14.23;;;;;;;7.24;69.15;94000.72;521195;28;766;-68
2024/02/20 00:01:31;;;;;;;18.00;14.07;;;;;;;7.24;69.33;94000.72;521236;28;873;-68
2024/02/20 00:01:47;;;;;;;18.17;14.40;;;;;;;7.25;69.05;94004.22;521260;28;793;-68
2024/02/20 00:02:03;;;;;;;18.73;14.17;;;;;;;7.24;69.10;93997.97;521221;28;758;-68
2024/02/20 00:02:18;;;;;;;17.98;13.23;;;;;;;7.25;68.98;93993.97;521254;28;757;-68
2024/02/20 00:02:33;;;;;;;16.90;12.90;;;;;;;7.26;69.07;93995.44;521159;28;766;-68
2024/02/20 00:02:49;;;;;;;17.05;13.00;;;;;;;7.26;69.00;93989.22;521302;28;889;-68
2024/02/20 00:03:04;;;;;;;17.27;12.93;;;;;;;7.25;68.92;93996.72;521090;28;839;-68
2024/02/20 00:03:20;;;;;;;18.37;12.57;;;;;;;7.25;68.82;93996.72;521247;28;876;-68
2024/02/20 00:03:35;;;;;;;19.67;13.17;;;;;;;7.26;68.89;93997.44;521234;28;821;-68
2024/02/20 00:03:51;;;;;;;19.63;13.93;;;;;;;7.26;68.85;93994.69;521221;28;932;-68
2024/02/20 00:04:09;;;;;;;18.67;13.63;;;;;;;7.27;68.85;93996.19;521232;28;832;-68
2024/02/20 00:04:25;;;;;;;17.15;13.10;;;;;;;7.27;68.92;93996.94;521134;28;872;-68
2024/02/20 00:04:40;;;;;;;17.20;12.93;;;;;;;7.26;68.83;93995.44;521334;28;853;-68
2024/02/20 00:04:56;;;;;;;17.75;12.75;;;;;;;7.26;68.99;93998.19;521182;28;916;-68
2024/02/20 00:05:12;;;;;;;18.00;13.37;;;;;;;7.26;68.88;93998.19;521237;28;833;-68
2024/02/20 00:05:28;;;;;;;16.60;12.85;;;;;;;7.27;68.78;93996.94;521158;28;981;-68
2024/02/20 00:05:43;;;;;;;17.87;12.70;;;;;;;7.25;68.89;93999.47;521232;28;848;-68
2024/02/20 00:05:58;;;;;;;18.70;13.13;;;;;;;7.26;68.67;93994.69;521184;28;1902;-68
2024/02/20 00:06:14;;;;;;;18.63;13.02;;;;;;;7.23;68.99;93999.25;521211;28;825;-68
2024/02/20 00:06:29;;;;;;;21.23;13.47;;;;;;;7.22;68.76;93992.25;521194;28;861;-68
2024/02/20 00:06:45;;;;;;;20.08;13.43;;;;;;;7.21;68.88;93995.50;521120;28;1004;-68
2024/02/20 00:07:00;;;;;;;17.53;12.93;;;;;;;7.19;68.99;93998.75;521327;28;802;-68
2024/02/20 00:07:15;;;;;;;18.20;13.30;;;;;;;7.19;68.97;93995.28;521215;28;893;-68
2024/02/20 00:07:31;;;;;;;18.70;13.95;;;;;;;7.17;69.17;94000.53;521229;28;817;-69
2024/02/20 00:07:46;;;;;;;19.07;14.00;;;;;;;7.17;68.99;94003.28;521220;28;789;-68
2024/02/20 00:08:02;;;;;;;19.02;14.00;;;;;;;7.15;69.08;93995.53;521158;28;789;-68
2024/02/20 00:08:18;;;;;;;19.52;13.70;;;;;;;7.12;69.18;93998.59;521166;28;793;-68
2024/02/20 00:08:33;;;;;;;18.47;12.73;;;;;;;7.13;69.09;94005.56;521206;28;861;-68
2024/02/20 00:08:48;;;;;;;18.25;12.95;;;;;;;7.11;69.27;94000.59;521296;28;773;-68
2024/02/20 00:09:04;;;;;;;18.10;13.37;;;;;;;7.08;69.27;93998.84;521170;28;873;-68
2024/02/20 00:09:19;;;;;;;17.27;12.93;;;;;;;7.06;69.60;94000.66;521196;28;822;-68
2024/02/20 00:09:35;;;;;;;19.02;13.25;;;;;;;7.04;69.56;94000.41;521213;28;798;-68
2024/02/20 00:09:51;;;;;;;19.20;13.53;;;;;;;7.00;69.84;93997.94;521243;28;897;-68
2024/02/20 00:10:08;;;;;;;19.10;13.35;;;;;;;6.97;70.04;93992.72;529700;28;1725;-68
2024/02/20 00:10:24;;;;;;;19.63;13.82;;;;;;;6.94;70.21;93996.50;529733;27;1096;-68
2024/02/20 00:10:39;;;;;;;19.33;13.77;;;;;;;6.89;70.18;93998.03;529683;28;1006;-68
2024/02/20 00:10:56;;;;;;;19.77;14.38;;;;;;;6.86;70.27;93999.06;529669;28;837;-68
2024/02/20 00:11:11;;;;;;;19.50;14.77;;;;;;;6.82;70.58;93993.84;529851;28;841;-68
2024/02/20 00:11:28;;;;;;;20.92;15.20;;;;;;;6.80;70.58;93995.59;529892;28;849;-68
2024/02/20 00:11:43;;;;;;;21.52;14.82;;;;;;;6.77;70.87;93994.63;529939;28;892;-68
2024/02/20 00:12:02;;;;;;;20.55;14.65;;;;;;;6.77;70.72;93996.63;526023;28;903;-68
2024/02/20 00:12:17;;;;;;;21.38;15.27;;;;;;;6.73;70.88;93988.69;521441;28;845;-68
2024/02/20 00:12:35;;;;;;;19.15;14.80;;;;;;;6.73;71.02;93993.41;521406;28;853;-68
2024/02/20 00:12:50;;;;;;;17.73;13.93;;;;;;;6.69;71.08;93998.44;521501;28;939;-68
2024/02/20 00:13:06;;;;;;;19.15;14.25;;;;;;;6.69;71.09;93987.47;521303;28;856;-68
2024/02/20 00:13:21;;;;;;;19.93;14.27;;;;;;;6.70;71.11;93988.94;521355;28;885;-68
2024/02/20 00:13:37;;;;;;;20.52;13.93;;;;;;;6.70;71.23;93994.44;521364;28;778;-68
2024/02/20 00:13:53;;;;;;;19.98;14.07;;;;;;;6.71;71.21;93991.16;521411;28;996;-68
2024/02/20 00:14:09;;;;;;;18.23;13.77;;;;;;;6.70;71.19;93986.19;521500;28;774;-68
2024/02/20 00:14:24;;;;;;;18.67;14.00;;;;;;;6.69;71.17;93992.97;521299;28;861;-68
2024/02/20 00:14:39;;;;;;;21.50;14.77;;;;;;;6.67;71.31;93987.97;521481;28;1016;-68
2024/02/20 00:14:57;;;;;;;21.45;14.80;;;;;;;6.64;71.39;93991.00;521273;28;868;-68
2024/02/20 00:15:13;;;;;;;20.02;14.65;;;;;;;6.56;71.29;93981.81;521475;28;900;-68
2024/02/20 00:15:28;;;;;;;19.83;14.47;;;;;;;6.60;71.66;93993.28;521787;28;813;-68
2024/02/20 00:15:45;;;;;;;20.23;14.90;;;;;;;6.58;71.63;93991.00;521729;28;789;-68
2024/02/20 00:16:01;;;;;;;22.92;15.48;;;;;;;6.56;71.75;93993.53;521871;28;916;-68
2024/02/20 00:16:17;;;;;;;25.50;15.67;;;;;;;6.57;71.60;93986.03;521602;28;932;-68
2024/02/20 00:16:33;;;;;;;25.10;15.37;;;;;;;6.57;71.76;93992.28;521767;28;794;-68
2024/02/20 00:16:49;;;;;;;24.48;15.15;;;;;;;6.56;71.84;93987.31;521859;28;876;-68
2024/02/20 00:17:04;;;;;;;22.77;15.15;;;;;;;6.55;71.55;93991.28;521788;28;825;-68
2024/02/20 00:17:20;;;;;;;20.13;14.75;;;;;;;6.55;71.78;93986.56;521746;28;786;-68
2024/02/20 00:17:37;;;;;;;20.60;14.53;;;;;;;6.53;71.91;93989.06;521693;28;754;-68
2024/02/20 00:17:52;;;;;;;19.88;14.75;;;;;;;6.51;71.88;93988.84;521800;28;885;-68
2024/02/20 00:18:08;;;;;;;20.42;15.00;;;;;;;6.50;71.85;93992.81;521749;28;830;-68
2024/02/20 00:18:24;;;;;;;21.83;14.73;;;;;;;6.49;72.04;93990.59;519469;28;884;-68
2024/02/20 00:18:40;;;;;;;21.63;14.67;;;;;;;6.49;72.12;93991.34;519624;28;789;-68
2024/02/20 00:18:56;;;;;;;20.23;14.45;;;;;;;6.47;72.13;93991.13;519487;28;987;-68
2024/02/20 00:19:11;;;;;;;18.97;14.50;;;;;;;6.47;72.21;93990.38;519565;28;800;-68
2024/02/20 00:19:27;;;;;;;19.55;14.98;;;;;;;6.45;72.03;93985.41;519487;28;790;-68
2024/02/20 00:19:43;;;;;;;20.77;15.10;;;;;;;6.45;72.03;93987.38;519613;28;853;-68
2024/02/20 00:19:58;;;;;;;18.30;14.13;;;;;;;6.44;72.13;93989.38;519645;28;865;-68
2024/02/20 00:20:14;;;;;;;17.65;13.95;;;;;;;6.46;72.28;93988.88;520218;28;774;-68
2024/02/20 00:20:29;;;;;;;18.97;14.37;;;;;;;6.48;72.18;93992.59;521687;28;849;-68
2024/02/20 00:20:45;;;;;;;19.63;14.65;;;;;;;6.49;72.24;93991.34;521728;28;766;-68
2024/02/20 00:21:01;;;;;;;18.98;14.90;;;;;;;6.51;72.31;93985.34;521874;28;884;-68
2024/02/20 00:21:17;;;;;;;19.53;14.90;;;;;;;6.52;71.99;93984.09;521705;28;912;-68
2024/02/20 00:21:32;;;;;;;21.17;15.15;;;;;;;6.53;72.12;93982.84;521735;28;781;-68
2024/02/20 00:21:47;;;;;;;21.40;15.13;;;;;;;6.54;71.90;93985.06;521756;28;762;-68
2024/02/20 00:22:03;;;;;;;19.90;14.27;;;;;;;6.56;71.87;93985.28;521759;28;793;-68
2024/02/20 00:22:18;;;;;;;19.90;14.20;;;;;;;6.58;71.72;93988.28;521719;28;775;-68
2024/02/20 00:22:34;;;;;;;18.65;14.25;;;;;;;6.37;71.74;93943.28;521697;28;762;-68
2024/02/20 00:22:50;;;;;;;17.52;13.93;;;;;;;6.62;71.54;93980.53;521824;28;1015;-68
2024/02/20 00:23:05;;;;;;;18.83;14.47;;;;;;;6.64;71.53;93982.75;521765;28;849;-68
2024/02/20 00:23:21;;;;;;;20.40;14.57;;;;;;;6.65;71.64;93979.50;521695;28;957;-68
2024/02/20 00:23:36;;;;;;;20.03;14.27;;;;;;;6.63;71.44;93982.00;521706;28;912;-68
2024/02/20 00:23:52;;;;;;;18.10;13.75;;;;;;;6.66;71.39;93981.00;521779;28;920;-68
2024/02/20 00:24:07;;;;;;;18.37;13.87;;;;;;;6.68;71.38;93988.72;521724;28;794;-68
2024/02/20 00:24:23;;;;;;;20.35;14.50;;;;;;;6.68;71.29;93983.22;521689;28;818;-68
2024/02/20 00:24:38;;;;;;;21.27;14.77;;;;;;;6.68;71.44;93991.47;521700;28;865;-68
2024/02/20 00:24:54;;;;;;;22.05;14.85;;;;;;;6.67;71.38;93987.25;521751;28;758;-68
2024/02/20 00:25:09;;;;;;;20.70;14.43;;;;;;;6.62;71.46;93980.53;521779;28;922;-68
2024/02/20 00:25:25;;;;;;;19.50;14.60;;;;;;;6.64;71.19;93980.00;521665;28;826;-68
2024/02/20 00:25:42;;;;;;;19.83;14.13;;;;;;;6.48;71.26;93951.44;521809;28;813;-68
2024/02/20 00:25:57;;;;;;;17.83;13.48;;;;;;;6.69;71.31;93979.97;521680;28;908;-68
2024/02/20 00:26:13;;;;;;;18.95;14.27;;;;;;;6.69;71.36;93981.97;521728;28;1914;-68
2024/02/20 00:26:28;;;;;;;20.03;14.87;;;;;;;6.68;71.18;93985.97;521750;28;794;-68
2024/02/20 00:26:44;;;;;;;19.35;14.73;;;;;;;6.68;71.46;93983.97;521791;28;857;-68
2024/02/20 00:26:59;;;;;;;20.00;14.50;;;;;;;6.70;71.56;93986.19;521806;28;813;-68
2024/02/20 00:27:15;;;;;;;20.77;15.15;;;;;;;6.72;71.28;93983.69;521670;28;802;-68
2024/02/20 00:27:31;;;;;;;19.87;14.80;;;;;;;6.68;71.39;93983.22;521722;28;842;-68
2024/02/20 00:27:46;;;;;;;21.38;15.15;;;;;;;6.73;71.34;93983.19;521771;28;805;-68
2024/02/20 00:28:02;;;;;;;24.08;16.13;;;;;;;6.75;71.31;93985.41;521697;28;842;-68
2024/02/20 00:28:17;;;;;;;25.40;16.73;;;;;;;6.76;71.31;93986.91;521688;28;1092;-68
2024/02/20 00:28:40;;;;;;;27.52;18.25;;;;;;;6.77;71.49;93985.66;521722;28;811;-68
2024/02/20 00:28:55;;;;;;;35.83;21.27;;;;;;;6.80;71.36;93984.63;521685;28;853;-68
2024/02/20 00:29:10;;;;;;;38.43;21.53;;;;;;;6.80;71.50;93990.09;521808;28;781;-68
2024/02/20 00:29:26;;;;;;;35.85;20.27;;;;;;;6.82;71.10;93993.09;521746;28;864;-68
2024/02/20 00:29:42;;;;;;;30.47;19.00;;;;;;;6.82;71.15;93985.59;521793;28;802;-68
2024/02/20 00:29:57;;;;;;;28.42;18.55;;;;;;;6.84;71.21;93996.09;521753;28;854;-68
2024/02/20 00:30:13;;;;;;;27.73;18.00;;;;;;;6.85;71.26;93992.06;521635;28;802;-68
2024/02/20 00:30:28;;;;;;;28.40;18.20;;;;;;;6.86;71.17;93990.81;521683;28;849;-68
2024/02/20 00:30:44;;;;;;;30.80;19.10;;;;;;;6.86;71.26;93991.53;521725;28;794;-68
2024/02/20 00:30:59;;;;;;;31.33;19.07;;;;;;;6.87;71.07;93995.78;521842;28;769;-68
2024/02/20 00:31:15;;;;;;;29.88;18.30;;;;;;;6.89;71.21;93992.53;521707;28;885;-68
2024/02/20 00:31:32;;;;;;;30.55;17.77;;;;;;;6.89;70.98;93989.78;521658;28;821;-68
2024/02/20 00:31:48;;;;;;;30.85;18.48;;;;;;;6.91;71.04;93989.28;521778;28;869;-68
2024/02/20 00:32:04;;;;;;;26.40;17.67;;;;;;;6.90;70.97;93988.53;521785;28;896;-68
2024/02/20 00:32:21;;;;;;;26.20;17.50;;;;;;;6.92;70.93;93990.75;521824;28;832;-68
2024/02/20 00:32:37;;;;;;;28.38;18.02;;;;;;;6.91;71.08;93992.75;521693;28;888;-68
2024/02/20 00:32:52;;;;;;;29.10;18.08;;;;;;;6.93;71.18;93990.25;521686;28;901;-68
2024/02/20 00:33:08;;;;;;;25.37;17.23;;;;;;;6.94;71.05;93991.00;521799;28;766;-68
2024/02/20 00:33:24;;;;;;;22.52;15.82;;;;;;;6.92;71.08;93996.25;521568;28;885;-68
2024/02/20 00:33:39;;;;;;;22.73;15.50;;;;;;;6.93;71.05;93998.47;521812;28;818;-68
2024/02/20 00:33:55;;;;;;;21.97;15.57;;;;;;;6.93;71.05;93990.25;521728;28;911;-68
2024/02/20 00:34:10;;;;;;;23.13;15.65;;;;;;;6.94;71.04;93997.25;521792;28;773;-68
2024/02/20 00:34:25;;;;;;;23.57;15.67;;;;;;;6.95;70.97;93995.25;521618;28;1000;-68
2024/02/20 00:34:41;;;;;;;21.50;15.50;;;;;;;6.95;71.03;93987.00;521808;28;817;-68
2024/02/20 00:34:57;;;;;;;21.57;15.73;;;;;;;6.85;71.07;93975.59;521766;28;824;-68
2024/02/20 00:35:12;;;;;;;21.23;15.38;;;;;;;6.94;70.92;93988.25;521799;28;814;-68
2024/02/20 00:35:28;;;;;;;20.57;15.10;;;;;;;6.96;71.00;93991.97;521629;28;783;-68
2024/02/20 00:35:43;;;;;;;21.40;15.43;;;;;;;6.97;71.03;93995.47;521689;28;806;-68
2024/02/20 00:35:59;;;;;;;19.93;15.10;;;;;;;6.98;70.97;93991.47;521783;28;805;-68
2024/02/20 00:36:14;;;;;;;19.83;15.30;;;;;;;6.98;70.98;93991.47;521691;28;797;-68
2024/02/20 00:36:30;;;;;;;20.47;15.30;;;;;;;6.98;70.88;93994.97;521743;28;933;-68
2024/02/20 00:36:45;;;;;;;19.95;15.30;;;;;;;6.97;70.83;93990.75;521686;28;889;-68
2024/02/20 00:37:00;;;;;;;22.43;16.33;;;;;;;7.00;70.75;93995.19;521737;28;734;-68
2024/02/20 00:37:16;;;;;;;22.55;15.93;;;;;;;6.99;70.92;93993.72;521697;28;778;-68
2024/02/20 00:37:31;;;;;;;22.47;15.80;;;;;;;6.99;70.88;93996.47;521747;28;873;-68
2024/02/20 00:37:47;;;;;;;24.58;16.60;;;;;;;7.01;70.73;93991.19;521735;28;809;-68
2024/02/20 00:38:02;;;;;;;23.57;16.83;;;;;;;7.02;70.81;93991.94;521749;28;786;-68
2024/02/20 00:38:18;;;;;;;22.25;15.80;;;;;;;7.02;70.82;93998.16;521749;28;1049;-68
2024/02/20 00:38:33;;;;;;;24.23;16.20;;;;;;;7.02;70.79;93992.66;521555;28;854;-68
2024/02/20 00:38:50;;;;;;;23.37;17.03;;;;;;;7.03;70.85;93991.44;521775;28;865;-68
2024/02/20 00:39:07;;;;;;;21.92;16.75;;;;;;;7.02;70.68;93991.94;521710;28;809;-68
2024/02/20 00:39:24;;;;;;;22.67;17.38;;;;;;;7.03;70.87;93990.69;521686;28;880;-68
2024/02/20 00:39:39;;;;;;;22.75;17.52;;;;;;;7.04;70.72;93994.91;521787;28;932;-68
2024/02/20 00:39:55;;;;;;;25.17;16.63;;;;;;;7.04;70.64;93992.91;521614;28;921;-68
2024/02/20 00:40:10;;;;;;;24.53;16.47;;;;;;;7.04;70.69;93990.16;521761;28;758;-68
2024/02/20 00:40:26;;;;;;;22.63;17.50;;;;;;;7.05;70.77;93993.66;521659;28;798;-68
2024/02/20 00:40:41;;;;;;;22.10;17.23;;;;;;;7.05;70.50;93991.66;521798;28;828;-68
2024/02/20 00:40:57;;;;;;;23.30;16.87;;;;;;;7.05;70.58;93988.91;521707;28;865;-68
2024/02/20 00:41:12;;;;;;;24.83;17.48;;;;;;;7.04;70.57;93990.16;521676;28;801;-68
2024/02/20 00:41:28;;;;;;;24.20;17.77;;;;;;;7.03;70.40;93988.69;521780;28;928;-68
2024/02/20 00:41:43;;;;;;;23.67;17.47;;;;;;;7.01;70.37;93988.44;521747;28;754;-68
2024/02/20 00:41:59;;;;;;;24.53;17.30;;;;;;;6.98;70.46;93977.72;521751;28;810;-68
2024/02/20 00:42:14;;;;;;;25.02;17.80;;;;;;;6.99;70.61;93988.22;521648;28;1008;-68
2024/02/20 00:42:30;;;;;;;23.93;18.43;;;;;;;7.00;70.62;93980.72;521811;28;790;-68
2024/02/20 00:42:45;;;;;;;24.15;18.58;;;;;;;6.99;70.61;93990.97;521661;28;904;-68
2024/02/20 00:43:01;;;;;;;24.48;18.15;;;;;;;7.00;70.56;93994.44;521777;28;864;-68
2024/02/20 00:43:16;;;;;;;22.77;17.43;;;;;;;6.99;70.37;93990.97;521680;28;832;-68
2024/02/20 00:43:32;;;;;;;24.53;18.43;;;;;;;6.99;70.39;93981.97;521639;28;849;-68
2024/02/20 00:43:47;;;;;;;25.88;19.23;;;;;;;6.94;70.32;93985.50;521681;28;1253;-68
2024/02/20 00:44:03;;;;;;;27.27;20.03;;;;;;;6.97;70.44;93985.25;521701;28;852;-68
2024/02/20 00:44:19;;;;;;;28.05;20.20;;;;;;;6.97;70.26;93982.50;520660;28;1171;-68
2024/02/20 00:44:35;;;;;;;24.70;18.98;;;;;;;6.95;70.54;93982.28;519652;28;889;-68
2024/02/20 00:44:51;;;;;;;23.90;18.75;;;;;;;6.94;70.50;93991.00;519792;28;873;-68
2024/02/20 00:45:07;;;;;;;25.55;18.83;;;;;;;6.94;70.68;93988.25;519628;28;913;-68
2024/02/20 00:45:23;;;;;;;25.65;18.92;;;;;;;6.93;70.68;93981.28;519534;28;850;-68
2024/02/20 00:45:39;;;;;;;24.52;19.02;;;;;;;6.79;70.52;93966.69;519776;28;933;-68
2024/02/20 00:45:55;;;;;;;26.10;19.30;;;;;;;6.93;70.64;93986.78;519740;28;829;-68
2024/02/20 00:46:23;;;;;;;26.67;18.85;;;;;;;6.95;70.71;93978.78;519641;28;1965;-68
2024/02/20 00:46:38;;;;;;;24.95;19.13;;;;;;;6.94;70.61;93986.25;519637;28;897;-68
2024/02/20 00:46:54;;;;;;;24.17;18.73;;;;;;;6.94;70.71;93977.28;519681;28;1251;-68
2024/02/20 00:47:09;;;;;;;25.67;18.92;;;;;;;6.91;70.77;93981.06;521750;28;810;-68
2024/02/20 00:47:26;;;;;;;25.07;18.60;;;;;;;6.88;70.66;93980.06;521602;28;1167;-68
2024/02/20 00:47:41;;;;;;;25.08;18.88;;;;;;;6.87;70.87;93975.84;521788;28;901;-68
2024/02/20 00:47:57;;;;;;;24.17;18.80;;;;;;;6.88;70.72;93980.06;521651;28;864;-68
2024/02/20 00:48:12;;;;;;;23.00;18.60;;;;;;;6.87;70.95;93981.31;521661;28;977;-68
2024/02/20 00:48:28;;;;;;;23.23;18.90;;;;;;;6.82;70.96;93980.09;521514;28;1150;-68
2024/02/20 00:48:44;;;;;;;23.30;18.35;;;;;;;6.81;71.02;93978.63;521702;28;921;-68
2024/02/20 00:49:00;;;;;;;24.00;18.00;;;;;;;6.79;71.09;93967.44;521811;28;919;-68
2024/02/20 00:49:16;;;;;;;25.77;18.23;;;;;;;6.76;70.85;93973.19;521728;28;833;-68
2024/02/20 00:49:32;;;;;;;26.15;18.15;;;;;;;6.77;70.96;93974.69;521625;28;972;-68
2024/02/20 00:49:47;;;;;;;24.83;18.20;;;;;;;6.75;71.34;93975.19;521730;28;884;-68
2024/02/20 00:50:03;;;;;;;24.90;18.27;;;;;;;6.71;71.26;93976.72;521739;28;881;-68
2024/02/20 00:50:18;;;;;;;25.75;18.45;;;;;;;6.72;71.31;93978.19;521777;28;763;-68
2024/02/20 00:50:34;;;;;;;27.03;19.50;;;;;;;6.72;71.49;93980.94;521681;28;785;-68
2024/02/20 00:50:49;;;;;;;27.20;19.27;;;;;;;6.72;71.60;93975.47;521787;28;861;-68
2024/02/20 00:51:05;;;;;;;27.77;18.80;;;;;;;6.73;71.36;93974.97;521630;28;753;-68
2024/02/20 00:51:22;;;;;;;25.75;18.92;;;;;;;6.75;71.26;93977.94;521817;28;818;-68
2024/02/20 00:51:37;;;;;;;24.98;18.35;;;;;;;6.76;71.29;93975.91;521702;28;848;-68
2024/02/20 00:51:52;;;;;;;27.07;18.77;;;;;;;6.78;71.26;93976.16;521712;28;770;-68
2024/02/20 00:52:08;;;;;;;26.35;19.27;;;;;;;6.78;71.19;93974.16;521777;28;873;-68
2024/02/20 00:52:24;;;;;;;25.50;18.90;;;;;;;6.79;71.17;93977.66;521634;28;817;-68
2024/02/20 00:52:39;;;;;;;26.38;18.80;;;;;;;6.75;70.95;93963.47;521737;28;793;-68
2024/02/20 00:52:55;;;;;;;26.33;19.40;;;;;;;6.80;71.33;93979.88;521649;28;809;-68
2024/02/20 00:53:10;;;;;;;26.87;20.30;;;;;;;6.79;71.07;93978.41;521819;28;790;-68
2024/02/20 00:53:27;;;;;;;27.30;19.93;;;;;;;6.82;70.99;93982.13;521583;28;758;-68
2024/02/20 00:53:42;;;;;;;26.25;19.25;;;;;;;6.82;70.90;93977.38;521598;28;865;-68
2024/02/20 00:53:58;;;;;;;27.53;19.50;;;;;;;6.82;70.84;93974.63;521694;28;829;-68
2024/02/20 00:54:13;;;;;;;28.83;19.65;;;;;;;6.82;70.97;93974.63;521763;28;805;-68
2024/02/20 00:54:29;;;;;;;26.27;19.07;;;;;;;6.84;70.95;93974.13;521692;28;1193;-68
2024/02/20 00:54:44;;;;;;;24.42;19.15;;;;;;;6.85;70.92;93975.59;521732;28;789;-68
2024/02/20 00:55:00;;;;;;;26.37;20.20;;;;;;;6.85;70.81;93981.09;521737;28;797;-68
2024/02/20 00:55:15;;;;;;;27.15;19.75;;;;;;;6.85;70.81;93978.34;521656;28;770;-68
2024/02/20 00:55:31;;;;;;;27.33;19.17;;;;;;;6.86;70.72;93977.09;521720;28;746;-68
2024/02/20 00:55:46;;;;;;;26.83;19.00;;;;;;;6.85;70.86;93973.59;521673;28;837;-68
2024/02/20 00:56:02;;;;;;;24.07;18.47;;;;;;;6.86;70.86;93972.34;521781;28;793;-68
2024/02/20 00:56:18;;;;;;;23.90;18.27;;;;;;;6.86;70.96;93969.59;521730;28;849;-68
2024/02/20 00:56:33;;;;;;;25.02;18.77;;;;;;;6.87;71.02;93970.34;521622;28;841;-68
2024/02/20 00:56:48;;;;;;;24.97;18.67;;;;;;;6.87;70.77;93967.59;521756;28;869;-68
2024/02/20 00:57:04;;;;;;;25.67;18.13;;;;;;;6.88;70.93;93969.84;521726;28;734;-68
2024/02/20 00:57:19;;;;;;;25.15;18.20;;;;;;;6.88;70.89;93969.84;521724;28;856;-68
2024/02/20 00:57:35;;;;;;;25.93;19.00;;;;;;;6.89;70.74;93973.31;521650;28;842;-68
2024/02/20 00:57:52;;;;;;;26.67;19.52;;;;;;;6.88;70.83;93967.09;521732;28;848;-68
2024/02/20 00:58:08;;;;;;;26.70;19.63;;;;;;;6.89;70.78;93967.81;521691;28;881;-68
2024/02/20 00:58:23;;;;;;;26.45;19.45;;;;;;;6.89;70.84;93968.56;521635;28;759;-68
2024/02/20 00:58:39;;;;;;;25.93;19.37;;;;;;;6.89;70.90;93965.84;521701;28;860;-68
2024/02/20 00:58:54;;;;;;;25.42;18.90;;;;;;;6.89;70.86;93968.56;521666;28;873;-68
2024/02/20 00:59:09;;;;;;;25.17;19.10;;;;;;;6.91;70.57;93967.34;521685;28;948;-68
2024/02/20 00:59:26;;;;;;;26.33;20.27;;;;;;;6.87;70.85;93959.38;521616;28;797;-68
2024/02/20 00:59:42;;;;;;;27.65;19.90;;;;;;;6.92;70.68;93968.81;521768;28;849;-68
2024/02/20 00:59:58;;;;;;;26.55;19.13;;;;;;;6.92;70.67;93961.31;521701;28;814;-68
2024/02/20 01:00:14;;;;;;;25.45;18.33;;;;;;;6.91;70.53;93968.06;521686;28;853;-68
2024/02/20 01:00:29;;;;;;;26.33;18.95;;;;;;;6.92;70.74;93972.31;521703;28;881;-68
2024/02/20 01:00:44;;;;;;;25.33;18.93;;;;;;;6.92;70.50;93966.81;521585;28;849;-68
2024/02/20 01:01:00;;;;;;;23.53;18.70;;;;;;;6.92;70.70;93968.81;521755;28;766;-68
2024/02/20 01:01:17;;;;;;;23.85;18.38;;;;;;;6.93;70.63;93970.31;521861;28;813;-68
2024/02/20 01:01:32;;;;;;;23.95;18.20;;;;;;;6.93;70.65;93970.31;521645;28;841;-68
2024/02/20 01:01:50;;;;;;;25.20;18.80;;;;;;;6.92;70.82;93972.31;521806;28;844;-68
2024/02/20 01:02:10;;;;;;;26.55;19.40;;;;;;;6.89;70.88;93957.59;521610;28;924;-68
2024/02/20 01:02:25;;;;;;;26.60;19.10;;;;;;;6.93;70.71;93968.28;521672;28;919;-68
2024/02/20 01:02:41;;;;;;;25.93;19.07;;;;;;;6.92;70.54;93968.81;521738;28;848;-68
2024/02/20 01:02:58;;;;;;;25.40;18.67;;;;;;;6.91;70.73;93964.59;521709;28;766;-68
2024/02/20 01:03:14;;;;;;;26.17;18.63;;;;;;;6.91;70.70;93965.31;521590;28;1107;-68
2024/02/20 01:03:29;;;;;;;25.50;18.85;;;;;;;6.91;70.67;93968.06;521696;28;829;-68
2024/02/20 01:03:45;;;;;;;26.43;18.73;;;;;;;6.91;70.69;93959.81;521518;28;1622;-68
2024/02/20 01:04:00;;;;;;;26.40;18.30;;;;;;;6.91;70.66;93959.81;521746;28;821;-68
2024/02/20 01:04:16;;;;;;;26.43;18.33;;;;;;;6.92;70.66;93968.81;521681;28;817;-68
2024/02/20 01:04:31;;;;;;;27.00;19.08;;;;;;;6.91;70.68;93964.59;521671;28;830;-68
2024/02/20 01:04:47;;;;;;;24.80;18.97;;;;;;;6.90;70.58;93963.84;521646;28;924;-68
2024/02/20 01:05:02;;;;;;;25.30;18.93;;;;;;;6.88;70.80;93964.38;521746;28;790;-68
2024/02/20 01:05:18;;;;;;;27.98;19.55;;;;;;;6.64;70.69;93923.16;521657;28;841;-68
2024/02/20 01:05:33;;;;;;;27.60;19.80;;;;;;;6.89;70.75;93962.34;521633;28;885;-68
2024/02/20 01:05:49;;;;;;;26.87;20.13;;;;;;;6.87;70.70;93957.38;521774;28;758;-68
2024/02/20 01:06:08;;;;;;;26.05;19.60;;;;;;;6.87;70.72;93962.84;521585;28;1910;-68
2024/02/20 01:06:24;;;;;;;24.15;18.70;;;;;;;6.87;70.80;93960.13;521610;28;857;-68
2024/02/20 01:06:40;;;;;;;26.77;19.10;;;;;;;6.87;70.83;93957.38;521712;28;857;-68
2024/02/20 01:06:55;;;;;;;27.00;19.10;;;;;;;6.86;70.89;93960.63;521662;28;849;-68
2024/02/20 01:07:11;;;;;;;26.93;19.37;;;;;;;6.86;70.88;93955.16;521779;28;841;-68
2024/02/20 01:07:27;;;;;;;26.13;19.27;;;;;;;6.85;70.89;93954.41;521675;28;790;-68
2024/02/20 01:07:42;;;;;;;25.65;19.10;;;;;;;6.87;70.93;93953.88;521684;28;845;-68
2024/02/20 01:07:58;;;;;;;26.90;18.57;;;;;;;6.87;70.96;93953.88;521732;28;822;-68
2024/02/20 01:08:13;;;;;;;26.70;18.52;;;;;;;6.86;70.85;93955.88;521614;28;865;-68
2024/02/20 01:08:30;;;;;;;25.07;18.77;;;;;;;6.86;70.71;93952.41;521728;28;796;-68
2024/02/20 01:08:45;;;;;;;24.77;18.60;;;;;;;6.88;70.86;93955.38;521643;28;1099;-68
2024/02/20 01:09:01;;;;;;;24.77;18.17;;;;;;;6.87;70.77;93948.38;521698;28;796;-68
2024/02/20 01:09:16;;;;;;;23.23;17.70;;;;;;;6.88;70.83;93955.38;521655;28;833;-68
2024/02/20 01:09:31;;;;;;;24.58;18.13;;;;;;;6.87;70.88;93956.63;521722;28;841;-69
2024/02/20 01:09:47;;;;;;;24.43;18.30;;;;;;;6.87;70.75;93949.13;521732;28;762;-68
2024/02/20 01:10:03;;;;;;;24.42;18.55;;;;;;;6.88;70.54;93956.13;521645;28;901;-68
2024/02/20 01:10:18;;;;;;;26.65;18.83;;;;;;;6.88;70.60;93950.63;521677;28;876;-68
2024/02/20 01:10:34;;;;;;;26.70;18.23;;;;;;;6.89;70.52;93954.09;521689;28;942;-68
2024/02/20 01:10:50;;;;;;;26.70;18.27;;;;;;;6.89;70.67;93948.63;521756;28;786;-68
2024/02/20 01:11:06;;;;;;;24.35;17.65;;;;;;;6.89;70.75;93949.38;521715;28;890;-68
2024/02/20 01:11:22;;;;;;;21.98;16.98;;;;;;;6.89;70.56;93954.84;521677;28;825;-68
2024/02/20 01:11:37;;;;;;;21.63;17.02;;;;;;;6.88;70.57;93945.16;521683;28;817;-68
2024/02/20 01:11:53;;;;;;;24.50;17.60;;;;;;;6.90;70.65;93950.13;521657;28;849;-68
2024/02/20 01:12:08;;;;;;;25.47;17.63;;;;;;;6.91;70.51;93950.88;521738;28;774;-68
2024/02/20 01:12:23;;;;;;;22.70;17.40;;;;;;;6.90;70.46;93944.63;521666;28;830;-68
2024/02/20 01:12:39;;;;;;;23.87;17.83;;;;;;;6.89;70.63;93948.63;521720;28;789;-68
2024/02/20 01:12:55;;;;;;;25.70;17.83;;;;;;;6.89;70.45;93954.84;521682;28;869;-68
2024/02/20 01:13:11;;;;;;;23.65;17.30;;;;;;;6.89;70.49;93945.88;521659;28;806;-68
2024/02/20 01:13:27;;;;;;;22.70;16.98;;;;;;;6.90;70.61;93950.13;521694;28;919;-68
2024/02/20 01:13:42;;;;;;;24.75;17.83;;;;;;;6.89;70.61;93951.34;521717;28;861;-68
2024/02/20 01:13:58;;;;;;;24.03;18.37;;;;;;;6.65;70.55;93910.16;521645;28;750;-68
2024/02/20 01:14:13;;;;;;;23.30;17.73;;;;;;;6.88;70.53;93947.88;521695;28;877;-68
2024/02/20 01:14:30;;;;;;;23.77;17.07;;;;;;;6.89;70.54;93945.88;521596;28;1085;-68
2024/02/20 01:14:47;;;;;;;22.85;16.35;;;;;;;6.89;70.47;93948.63;521656;28;817;-68
2024/02/20 01:15:04;;;;;;;23.55;16.38;;;;;;;6.89;70.58;93943.13;521640;28;885;-68
2024/02/20 01:15:19;;;;;;;22.27;16.65;;;;;;;6.89;70.56;93943.13;521762;28;897;-68
2024/02/20 01:15:35;;;;;;;22.50;16.77;;;;;;;6.90;70.60;93944.63;521655;28;994;-68
2024/02/20 01:15:50;;;;;;;22.97;16.70;;;;;;;6.89;70.73;93946.63;521652;28;872;-68
2024/02/20 01:16:06;;;;;;;23.55;17.13;;;;;;;6.91;70.60;93948.13;521603;28;845;-68